createdAt,value
2024-04-23T07:20:19.062Z,5.70
2024-04-23T07:22:45.972Z,5.80
2024-04-23T07:25:12.895Z,5.90
2024-04-23T07:27:41.073Z,5.90
2024-04-23T07:30:08.182Z,6.00
2024-04-23T07:32:35.027Z,6.10
2024-04-23T07:35:02.002Z,6.20
2024-04-23T07:37:28.929Z,6.20
2024-04-23T07:39:55.727Z,6.30
2024-04-23T07:42:22.470Z,6.30
2024-04-23T07:44:49.463Z,6.40
2024-04-23T07:47:19.217Z,6.40
2024-04-23T07:49:46.189Z,6.50
2024-04-23T07:52:12.975Z,6.50
2024-04-23T07:54:39.861Z,6.60
2024-04-23T07:57:06.628Z,6.70
2024-04-23T07:59:33.434Z,6.80
2024-04-23T08:02:00.346Z,6.90
2024-04-23T08:04:27.222Z,7.00
2024-04-23T08:06:54.012Z,7.00
2024-04-23T08:09:20.788Z,7.00
2024-04-23T08:11:47.590Z,7.00
2024-04-23T08:14:14.445Z,7.20
2024-04-23T08:16:41.345Z,7.30
2024-04-23T08:19:08.219Z,7.40
2024-04-23T08:21:38.136Z,7.30
2024-04-23T08:24:05.277Z,7.40
2024-04-23T08:26:32.086Z,7.30
2024-04-23T08:28:59.777Z,7.40
2024-04-23T08:31:27.151Z,7.50
2024-04-23T08:33:54.092Z,7.70
2024-04-23T08:36:20.904Z,8.00
2024-04-23T08:38:47.651Z,8.00
2024-04-23T08:41:18.988Z,7.80
2024-04-23T08:44:07.369Z,8.10
2024-04-23T08:46:34.298Z,8.30
2024-04-23T08:49:02.111Z,8.30
2024-04-23T08:51:29.359Z,8.60
2024-04-23T08:53:56.361Z,8.50
2024-04-23T08:56:26.441Z,8.90
2024-04-23T08:58:53.536Z,9.00
2024-04-23T09:01:27.561Z,8.90
2024-04-23T09:03:56.760Z,8.70
2024-04-23T09:06:25.594Z,8.50
2024-04-23T09:08:53.911Z,8.40
2024-04-23T09:11:22.113Z,8.30
2024-04-23T09:13:49.169Z,8.30
2024-04-23T09:16:16.067Z,8.20
2024-04-23T09:18:42.904Z,8.20
2024-04-23T09:21:10.331Z,8.30
2024-04-23T09:23:37.475Z,8.30
2024-04-23T09:26:05.176Z,8.20
2024-04-23T09:28:36.539Z,8.30
2024-04-23T09:31:04.573Z,8.40
2024-04-23T09:33:33.328Z,8.50
2024-04-23T09:36:01.160Z,8.50
2024-04-23T09:38:28.023Z,8.40
2024-04-23T09:40:55.937Z,8.50
2024-04-23T09:43:23.631Z,8.50
2024-04-23T09:45:52.047Z,8.50
2024-04-23T09:48:32.300Z,8.60
2024-04-23T09:51:05.640Z,8.50
2024-04-23T09:53:37.551Z,8.50
2024-04-23T09:56:11.332Z,8.60
2024-04-23T09:58:38.262Z,8.80
2024-04-23T10:01:06.127Z,8.80
2024-04-23T10:03:35.935Z,8.70
2024-04-23T10:06:08.582Z,8.90
2024-04-23T10:09:00.493Z,9.20
2024-04-23T10:11:32.651Z,9.50
2024-04-23T10:14:07.353Z,9.70
2024-04-23T10:16:40.601Z,9.50
2024-04-23T10:19:12.549Z,9.40
2024-04-23T10:21:42.235Z,9.50
2024-04-23T10:24:14.720Z,10.10
2024-04-23T10:26:43.943Z,10.20
2024-04-23T10:29:17.302Z,10.10
2024-04-23T10:31:44.666Z,9.90
2024-04-23T10:34:16.675Z,10.30
2024-04-23T10:36:48.808Z,9.90
2024-04-23T10:39:17.968Z,9.80
2024-04-23T10:41:47.949Z,9.30
2024-04-23T10:44:17.313Z,9.70
2024-04-23T10:46:45.351Z,10.30
2024-04-23T10:49:17.683Z,10.30
2024-04-23T10:51:47.219Z,10.40
2024-04-23T10:54:21.334Z,10.40
2024-04-23T10:57:08.651Z,10.50
2024-04-23T10:59:38.622Z,10.30
2024-04-23T11:02:10.547Z,10.30
2024-04-23T11:04:40.768Z,10.40
2024-04-23T11:07:10.775Z,10.80
2024-04-23T11:09:47.328Z,10.80
2024-04-23T11:12:24.526Z,11.00
2024-04-23T11:14:53.097Z,10.90
2024-04-23T11:17:21.376Z,10.70
2024-04-23T11:19:50.402Z,10.60
2024-04-23T11:22:22.128Z,10.50
2024-04-23T11:24:56.668Z,10.40
2024-04-23T11:27:26.782Z,10.40
2024-04-23T11:29:54.035Z,10.50
2024-04-23T11:32:21.094Z,10.60
2024-04-23T11:34:49.394Z,11.10
2024-04-23T11:37:24.384Z,11.20
2024-04-23T11:40:01.686Z,11.30
2024-04-23T11:42:30.221Z,11.50
2024-04-23T11:45:04.969Z,11.70
2024-04-23T11:47:32.983Z,11.60
2024-04-23T11:50:06.921Z,11.90
2024-04-23T11:52:34.960Z,11.60
2024-04-23T11:55:04.817Z,11.60
2024-04-23T11:57:32.183Z,12.00
2024-04-23T12:00:02.492Z,12.00
2024-04-23T12:02:33.449Z,11.90
2024-04-23T12:05:03.316Z,11.60
2024-04-23T12:07:31.300Z,11.60
2024-04-23T12:10:05.023Z,11.70
2024-04-23T12:12:36.746Z,11.50
2024-04-23T12:15:04.265Z,11.80
2024-04-23T12:17:31.544Z,11.50
2024-04-23T12:19:58.554Z,11.20
2024-04-23T12:22:25.494Z,11.50
2024-04-23T12:24:52.728Z,11.70
2024-04-23T12:27:21.690Z,12.00
2024-04-23T12:29:48.496Z,11.90
2024-04-23T12:32:15.423Z,12.20
2024-04-23T12:34:42.298Z,12.60
2024-04-23T12:37:09.671Z,12.70
2024-04-23T12:39:39.005Z,12.40
2024-04-23T12:42:14.236Z,12.60
2024-04-23T12:44:41.280Z,12.80
2024-04-23T12:47:10.762Z,13.20
2024-04-23T12:49:38.840Z,13.30
2024-04-23T12:52:05.970Z,13.20
2024-04-23T12:54:34.639Z,13.40
2024-04-23T12:57:02.774Z,13.20
2024-04-23T12:59:31.371Z,13.20
2024-04-23T13:02:00.538Z,13.70
2024-04-23T13:04:27.409Z,13.50
2024-04-23T13:06:54.248Z,13.30
2024-04-23T13:09:21.020Z,14.10
2024-04-23T13:11:47.895Z,14.10
2024-04-23T13:14:14.807Z,13.90
2024-04-23T13:16:46.788Z,14.00
2024-04-23T13:19:15.966Z,13.90
2024-04-23T13:21:42.865Z,14.00
2024-04-23T13:24:09.639Z,13.60
2024-04-23T13:26:36.445Z,14.10
2024-04-23T13:29:03.251Z,14.40
2024-04-23T13:31:30.048Z,14.20
2024-04-23T13:33:56.884Z,14.20
2024-04-23T13:36:23.678Z,15.00
2024-04-23T13:38:50.468Z,14.00
2024-04-23T13:41:19.750Z,14.70
2024-04-23T13:43:46.614Z,15.50
2024-04-23T13:46:13.439Z,15.10
2024-04-23T13:48:40.268Z,15.20
2024-04-23T13:51:08.073Z,15.30
2024-04-23T13:53:35.180Z,15.70
2024-04-23T13:56:07.522Z,16.10
2024-04-23T13:58:34.710Z,16.20
2024-04-23T14:01:11.587Z,16.00
2024-04-23T14:03:38.890Z,16.60
2024-04-23T14:06:06.398Z,16.10
2024-04-23T14:08:36.897Z,16.10
2024-04-23T14:11:05.063Z,15.90
2024-04-23T14:13:36.369Z,15.20
2024-04-23T14:16:13.758Z,16.20
2024-04-23T14:18:44.045Z,16.60
2024-04-23T14:21:10.874Z,15.80
2024-04-23T14:23:39.308Z,15.70
2024-04-23T14:26:06.408Z,15.60
2024-04-23T14:28:35.369Z,16.00
2024-04-23T14:31:05.977Z,15.90
2024-04-23T14:33:33.738Z,16.80
2024-04-23T14:36:03.612Z,16.90
2024-04-23T14:38:32.125Z,16.70
2024-04-23T14:40:59.906Z,16.10
2024-04-23T14:43:27.029Z,16.20
2024-04-23T14:45:54.019Z,16.50
2024-04-23T14:48:21.031Z,16.70
2024-04-23T14:50:49.158Z,16.50
2024-04-23T14:53:19.655Z,17.10
2024-04-23T14:55:57.662Z,16.60
2024-04-23T14:58:24.603Z,16.40
2024-04-23T15:00:51.451Z,16.20
2024-04-23T15:03:19.110Z,15.80
2024-04-23T15:05:46.079Z,15.50
2024-04-23T15:08:13.486Z,15.30
2024-04-23T15:10:47.934Z,15.40
2024-04-23T15:13:15.689Z,15.30
2024-04-23T15:15:42.652Z,15.20
2024-04-23T15:18:09.658Z,15.20
2024-04-23T15:20:42.943Z,14.40
2024-04-23T15:23:10.186Z,14.20
2024-04-23T15:25:37.092Z,14.20
2024-04-23T15:28:04.403Z,13.80
2024-04-23T15:30:31.218Z,14.20
2024-04-23T15:32:58.485Z,13.90
2024-04-23T15:35:25.595Z,13.70
2024-04-23T15:37:52.577Z,13.00
2024-04-23T15:40:19.471Z,13.00
2024-04-23T15:42:46.268Z,13.00
2024-04-23T15:45:14.135Z,12.70
2024-04-23T15:47:41.240Z,12.40
2024-04-23T15:50:08.464Z,12.60
2024-04-23T15:52:35.414Z,12.70
2024-04-23T15:55:02.238Z,12.20
2024-04-23T15:57:29.030Z,12.20
2024-04-23T15:59:55.811Z,12.20
2024-04-23T16:02:23.066Z,12.10
2024-04-23T16:04:50.008Z,12.00
2024-04-23T16:07:16.858Z,11.90
2024-04-23T16:09:43.681Z,11.70
2024-04-23T16:12:10.688Z,11.80
2024-04-23T16:14:37.591Z,11.60
2024-04-23T16:17:04.624Z,11.50
2024-04-23T16:19:31.494Z,10.90
2024-04-23T16:22:00.949Z,10.80
2024-04-23T16:24:27.987Z,10.50
2024-04-23T16:26:54.776Z,10.70
2024-04-23T16:29:21.606Z,10.60
2024-04-23T16:31:48.505Z,9.90
2024-04-23T16:34:15.419Z,10.30
2024-04-23T16:36:42.215Z,10.20
2024-04-23T16:39:11.269Z,9.80
2024-04-23T16:41:38.914Z,9.80
2024-04-23T16:44:05.874Z,10.00
2024-04-23T16:46:33.729Z,9.40
2024-04-23T16:49:01.638Z,9.40
2024-04-23T16:51:28.490Z,9.50
2024-04-23T16:53:55.261Z,9.60
2024-04-23T16:56:22.280Z,9.00
2024-04-23T16:58:52.972Z,9.30
2024-04-23T17:01:19.812Z,9.30
2024-04-23T17:03:46.676Z,9.50
2024-04-23T17:06:13.492Z,9.50
2024-04-23T17:08:40.252Z,9.30
2024-04-23T17:11:07.204Z,9.00
2024-04-23T17:13:34.856Z,8.90
2024-04-23T17:16:15.473Z,8.80
2024-04-23T17:18:42.546Z,8.90
2024-04-23T17:21:17.531Z,9.00
2024-04-23T17:23:45.237Z,8.90
2024-04-23T17:26:12.895Z,8.90
2024-04-23T17:28:40.094Z,8.80
2024-04-23T17:31:08.449Z,9.00
2024-04-23T17:33:35.886Z,8.90
2024-04-23T17:36:02.982Z,8.80
2024-04-23T17:38:29.803Z,8.60
2024-04-23T17:40:56.650Z,8.60
2024-04-23T17:43:23.937Z,8.60
2024-04-23T17:45:50.729Z,8.70
2024-04-23T17:48:17.761Z,8.80
2024-04-23T17:50:44.647Z,8.90
2024-04-23T17:53:11.486Z,8.70
2024-04-23T17:55:38.743Z,8.70
2024-04-23T17:58:05.637Z,8.90
2024-04-23T18:00:32.577Z,8.80
2024-04-23T18:02:59.540Z,8.80
2024-04-23T18:05:26.401Z,8.70
2024-04-23T18:07:53.209Z,8.70
2024-04-23T18:10:19.992Z,8.50
2024-04-23T18:12:47.279Z,8.60
2024-04-23T18:15:14.213Z,8.60
2024-04-23T18:17:41.141Z,8.60
2024-04-23T18:20:08.435Z,8.70
2024-04-23T18:22:37.090Z,8.60
2024-04-23T18:25:04.434Z,8.80
2024-04-23T18:27:31.407Z,8.60
2024-04-23T18:29:58.270Z,8.40
2024-04-23T18:32:25.453Z,8.50
2024-04-23T18:34:52.391Z,8.50
2024-04-23T18:37:19.186Z,8.40
2024-04-23T18:39:49.718Z,8.50
2024-04-23T18:42:16.548Z,8.50
2024-04-23T18:44:43.342Z,8.40
2024-04-23T18:47:10.161Z,8.40
2024-04-23T18:49:37.031Z,8.00
2024-04-23T18:52:04.980Z,8.30
2024-04-23T18:54:33.457Z,8.40
2024-04-23T18:57:00.591Z,8.60
2024-04-23T18:59:27.391Z,8.50
2024-04-23T19:01:55.384Z,8.50
2024-04-23T19:04:22.340Z,8.60
2024-04-23T19:06:49.172Z,8.60
2024-04-23T19:09:15.971Z,8.70
2024-04-23T19:11:42.870Z,8.60
2024-04-23T19:14:16.160Z,8.70
2024-04-23T19:16:44.868Z,8.70
2024-04-23T19:19:12.618Z,8.60
2024-04-23T19:21:39.672Z,8.40
2024-04-23T19:24:06.960Z,8.50
2024-04-23T19:26:33.760Z,8.50
2024-04-23T19:29:00.805Z,8.30
2024-04-23T19:31:27.844Z,8.30
2024-04-23T19:33:54.882Z,8.40
2024-04-23T19:36:23.128Z,8.30
2024-04-23T19:38:50.783Z,8.40
2024-04-23T19:41:17.770Z,8.40
2024-04-23T19:43:52.144Z,8.40
2024-04-23T19:46:21.365Z,8.30
2024-04-23T19:48:48.911Z,8.30
2024-04-23T19:51:19.488Z,8.30
2024-04-23T19:53:52.268Z,8.30
2024-04-23T19:56:34.592Z,8.40
2024-04-23T19:59:03.731Z,8.20
2024-04-23T20:01:37.861Z,8.20
2024-04-23T20:04:04.854Z,8.20
2024-04-23T20:06:36.314Z,8.10
2024-04-23T20:09:08.400Z,8.10
2024-04-23T20:11:36.640Z,8.10
2024-04-23T20:14:03.676Z,8.00
2024-04-23T20:16:30.513Z,8.10
2024-04-23T20:18:57.608Z,8.10
2024-04-23T20:21:24.446Z,7.90
2024-04-23T20:23:55.125Z,7.90
2024-04-23T20:26:23.542Z,7.90
2024-04-23T20:28:50.961Z,7.70
2024-04-23T20:31:17.843Z,7.60
2024-04-23T20:33:44.762Z,7.60
2024-04-23T20:36:14.748Z,7.50
2024-04-23T20:38:42.039Z,7.60
2024-04-23T20:41:10.625Z,7.50
2024-04-23T20:43:37.934Z,7.50
2024-04-23T20:46:06.630Z,7.40
2024-04-23T20:48:34.373Z,7.40
2024-04-23T20:51:01.240Z,7.40
2024-04-23T20:53:28.048Z,7.30
2024-04-23T20:55:54.966Z,7.30
2024-04-23T20:58:22.026Z,7.20
2024-04-23T21:00:49.187Z,7.30
2024-04-23T21:03:16.144Z,7.10
2024-04-23T21:05:43.046Z,7.10
2024-04-23T21:08:11.873Z,7.00
2024-04-23T21:10:39.551Z,6.90
2024-04-23T21:13:06.623Z,7.00
2024-04-23T21:15:33.701Z,6.80
2024-04-23T21:18:01.048Z,6.70
2024-04-23T21:20:28.227Z,6.80
2024-04-23T21:22:55.318Z,6.80
2024-04-23T21:25:22.300Z,6.90
2024-04-23T21:27:49.108Z,6.90
2024-04-23T21:30:16.027Z,6.80
2024-04-23T21:32:43.005Z,6.70
2024-04-23T21:35:10.005Z,6.60
2024-04-23T21:37:36.817Z,6.60
2024-04-23T21:40:03.871Z,6.50
2024-04-23T21:42:35.897Z,6.50
2024-04-23T21:45:08.488Z,6.50
2024-04-23T21:47:35.918Z,6.50
2024-04-23T21:50:03.433Z,6.50
2024-04-23T21:52:39.033Z,6.30
2024-04-23T21:55:09.061Z,6.30
2024-04-23T21:57:36.145Z,6.30
2024-04-23T22:00:03.624Z,6.30
2024-04-23T22:02:30.592Z,6.30
2024-04-23T22:04:57.542Z,6.40
2024-04-23T22:33:23.268Z,6.10
2024-04-23T22:42:20.722Z,6.10
2024-04-23T22:44:59.551Z,6.10
2024-04-23T22:47:44.659Z,6.10
2024-04-23T22:50:23.701Z,6.10
2024-04-23T22:53:45.889Z,6.10
2024-04-23T22:56:37.940Z,6.10
2024-04-23T22:59:41.737Z,6.10
2024-04-23T23:02:39.547Z,6.10
2024-04-23T23:05:24.841Z,6.10
2024-04-23T23:08:10.280Z,6.20
2024-04-23T23:10:37.111Z,6.20
2024-04-23T23:13:28.680Z,6.00
2024-04-23T23:16:07.722Z,5.90
2024-04-23T23:18:34.579Z,5.90
2024-04-23T23:21:01.493Z,6.00
2024-04-23T23:23:28.608Z,6.00
2024-04-23T23:25:55.561Z,5.90
2024-04-23T23:28:22.392Z,5.90
2024-04-23T23:30:49.310Z,6.00
2024-04-23T23:33:16.323Z,6.00
2024-04-23T23:35:43.254Z,6.10
2024-04-23T23:38:10.073Z,6.00
2024-04-23T23:40:37.627Z,6.00
2024-04-23T23:43:04.610Z,5.90
2024-04-23T23:45:31.507Z,6.00
2024-04-23T23:47:58.472Z,6.00
2024-04-23T23:50:25.823Z,5.90
2024-04-23T23:52:52.911Z,6.00
2024-04-23T23:55:19.746Z,5.90
2024-04-23T23:57:46.643Z,5.90
